sensor_id;sensor_type;location;lat;lon;timestamp;temperature;humidity
16955;DHT22;8594;52.052;8.354;2023-04-01T00:01:47;11.00;99.90
16955;DHT22;8594;52.052;8.354;2023-04-01T00:04:14;11.10;99.90
16955;DHT22;8594;52.052;8.354;2023-04-01T00:06:41;11.10;99.90
16955;DHT22;8594;52.052;8.354;2023-04-01T00:09:07;11.00;99.90
16955;DHT22;8594;52.052;8.354;2023-04-01T00:11:34;10.90;99.90
16955;DHT22;8594;52.052;8.354;2023-04-01T00:14:02;10.80;99.90
16955;DHT22;8594;52.052;8.354;2023-04-01T00:16:29;10.90;99.90
16955;DHT22;8594;52.052;8.354;2023-04-01T00:18:56;10.90;99.90
16955;DHT22;8594;52.052;8.354;2023-04-01T00:21:23;10.90;99.90
16955;DHT22;8594;52.052;8.354;2023-04-01T00:23:50;10.70;99.90
16955;DHT22;8594;52.052;8.354;2023-04-01T00:26:18;10.70;99.90
16955;DHT22;8594;52.052;8.354;2023-04-01T00:28:46;10.80;99.90
16955;DHT22;8594;52.052;8.354;2023-04-01T00:31:15;10.90;99.90
16955;DHT22;8594;52.052;8.354;2023-04-01T00:33:42;10.80;99.90
16955;DHT22;8594;52.052;8.354;2023-04-01T00:36:10;10.70;99.90
16955;DHT22;8594;52.052;8.354;2023-04-01T00:38:38;10.80;99.90
16955;DHT22;8594;52.052;8.354;2023-04-01T00:41:06;10.80;99.90
16955;DHT22;8594;52.052;8.354;2023-04-01T00:43:33;10.90;99.90
16955;DHT22;8594;52.052;8.354;2023-04-01T00:46:00;10.80;99.90
16955;DHT22;8594;52.052;8.354;2023-04-01T00:48:32;10.80;99.90
16955;DHT22;8594;52.052;8.354;2023-04-01T00:51:04;10.70;99.90
16955;DHT22;8594;52.052;8.354;2023-04-01T00:53:36;10.80;99.90
16955;DHT22;8594;52.052;8.354;2023-04-01T00:56:10;10.80;99.90
16955;DHT22;8594;52.052;8.354;2023-04-01T00:58:43;10.70;99.90
16955;DHT22;8594;52.052;8.354;2023-04-01T01:01:13;10.70;99.90
16955;DHT22;8594;52.052;8.354;2023-04-01T01:03:41;10.70;99.90
16955;DHT22;8594;52.052;8.354;2023-04-01T01:06:11;10.70;99.90
16955;DHT22;8594;52.052;8.354;2023-04-01T01:09:22;10.90;99.90
16955;DHT22;8594;52.052;8.354;2023-04-01T01:12:01;10.80;99.90
16955;DHT22;8594;52.052;8.354;2023-04-01T01:14:39;10.70;99.90
16955;DHT22;8594;52.052;8.354;2023-04-01T01:17:26;10.50;99.90
16955;DHT22;8594;52.052;8.354;2023-04-01T01:20:27;10.50;99.90
16955;DHT22;8594;52.052;8.354;2023-04-01T01:23:23;10.60;99.90
16955;DHT22;8594;52.052;8.354;2023-04-01T01:26:24;10.50;99.90
16955;DHT22;8594;52.052;8.354;2023-04-01T01:29:09;10.40;99.90
16955;DHT22;8594;52.052;8.354;2023-04-01T01:31:50;10.50;99.90
16955;DHT22;8594;52.052;8.354;2023-04-01T01:34:30;10.50;99.90
16955;DHT22;8594;52.052;8.354;2023-04-01T01:37:08;10.70;99.90
16955;DHT22;8594;52.052;8.354;2023-04-01T01:39:39;10.70;99.90
16955;DHT22;8594;52.052;8.354;2023-04-01T01:42:11;10.70;99.90
16955;DHT22;8594;52.052;8.354;2023-04-01T01:44:43;10.70;99.90
16955;DHT22;8594;52.052;8.354;2023-04-01T01:47:13;10.60;99.90
16955;DHT22;8594;52.052;8.354;2023-04-01T01:49:43;10.70;99.90
16955;DHT22;8594;52.052;8.354;2023-04-01T01:52:13;10.60;99.90
16955;DHT22;8594;52.052;8.354;2023-04-01T01:54:47;10.60;99.90
16955;DHT22;8594;52.052;8.354;2023-04-01T01:57:15;10.70;99.90
16955;DHT22;8594;52.052;8.354;2023-04-01T01:59:46;10.70;99.90
16955;DHT22;8594;52.052;8.354;2023-04-01T02:02:16;10.60;99.90
16955;DHT22;8594;52.052;8.354;2023-04-01T02:04:44;10.70;99.90
16955;DHT22;8594;52.052;8.354;2023-04-01T02:07:18;10.50;99.90
16955;DHT22;8594;52.052;8.354;2023-04-01T02:09:48;10.50;99.90
16955;DHT22;8594;52.052;8.354;2023-04-01T02:12:16;10.50;99.90
16955;DHT22;8594;52.052;8.354;2023-04-01T02:14:48;10.40;99.90
16955;DHT22;8594;52.052;8.354;2023-04-01T02:17:20;10.40;99.90
16955;DHT22;8594;52.052;8.354;2023-04-01T02:19:52;10.50;99.90
16955;DHT22;8594;52.052;8.354;2023-04-01T02:22:24;10.50;99.90
16955;DHT22;8594;52.052;8.354;2023-04-01T02:24:57;10.60;99.90
16955;DHT22;8594;52.052;8.354;2023-04-01T02:27:28;10.50;99.90
16955;DHT22;8594;52.052;8.354;2023-04-01T02:29:57;10.40;99.90
16955;DHT22;8594;52.052;8.354;2023-04-01T02:32:25;10.50;99.90
16955;DHT22;8594;52.052;8.354;2023-04-01T02:34:54;10.50;99.90
16955;DHT22;8594;52.052;8.354;2023-04-01T02:37:23;10.50;99.90
16955;DHT22;8594;52.052;8.354;2023-04-01T02:39:50;10.60;99.90
16955;DHT22;8594;52.052;8.354;2023-04-01T02:42:17;10.60;99.90
16955;DHT22;8594;52.052;8.354;2023-04-01T02:44:44;10.60;99.90
16955;DHT22;8594;52.052;8.354;2023-04-01T02:47:11;10.60;99.90
16955;DHT22;8594;52.052;8.354;2023-04-01T02:49:37;10.60;99.90
16955;DHT22;8594;52.052;8.354;2023-04-01T02:52:04;10.70;99.90
16955;DHT22;8594;52.052;8.354;2023-04-01T02:54:32;10.60;99.90
16955;DHT22;8594;52.052;8.354;2023-04-01T02:56:59;10.40;99.90
16955;DHT22;8594;52.052;8.354;2023-04-01T02:59:26;10.40;99.90
16955;DHT22;8594;52.052;8.354;2023-04-01T03:01:53;10.50;99.90
16955;DHT22;8594;52.052;8.354;2023-04-01T03:04:20;10.50;99.90
16955;DHT22;8594;52.052;8.354;2023-04-01T03:06:47;10.60;99.90
16955;DHT22;8594;52.052;8.354;2023-04-01T03:09:14;10.60;99.90
16955;DHT22;8594;52.052;8.354;2023-04-01T03:11:42;10.70;99.90
16955;DHT22;8594;52.052;8.354;2023-04-01T03:14:09;10.70;99.90
16955;DHT22;8594;52.052;8.354;2023-04-01T03:16:36;10.70;99.90
16955;DHT22;8594;52.052;8.354;2023-04-01T03:19:03;10.60;99.90
16955;DHT22;8594;52.052;8.354;2023-04-01T03:21:30;10.60;99.90
16955;DHT22;8594;52.052;8.354;2023-04-01T03:23:56;10.70;99.90
16955;DHT22;8594;52.052;8.354;2023-04-01T03:26:24;10.70;99.90
16955;DHT22;8594;52.052;8.354;2023-04-01T03:28:53;10.80;99.90
16955;DHT22;8594;52.052;8.354;2023-04-01T03:31:20;10.80;99.90
16955;DHT22;8594;52.052;8.354;2023-04-01T03:33:47;10.70;99.90
16955;DHT22;8594;52.052;8.354;2023-04-01T03:36:14;10.70;99.90
16955;DHT22;8594;52.052;8.354;2023-04-01T03:38:42;10.70;99.90
16955;DHT22;8594;52.052;8.354;2023-04-01T03:41:13;10.60;99.90
16955;DHT22;8594;52.052;8.354;2023-04-01T03:43:42;10.80;99.90
16955;DHT22;8594;52.052;8.354;2023-04-01T03:46:10;10.70;99.90
16955;DHT22;8594;52.052;8.354;2023-04-01T03:48:37;10.50;99.90
16955;DHT22;8594;52.052;8.354;2023-04-01T03:51:07;10.60;99.90
16955;DHT22;8594;52.052;8.354;2023-04-01T03:53:34;10.70;99.90
16955;DHT22;8594;52.052;8.354;2023-04-01T03:56:03;10.70;99.90
16955;DHT22;8594;52.052;8.354;2023-04-01T03:58:31;10.80;99.90
16955;DHT22;8594;52.052;8.354;2023-04-01T04:00:58;10.70;99.90
16955;DHT22;8594;52.052;8.354;2023-04-01T04:03:26;10.70;99.90
16955;DHT22;8594;52.052;8.354;2023-04-01T04:05:53;10.60;99.90
16955;DHT22;8594;52.052;8.354;2023-04-01T04:08:21;10.50;99.90
16955;DHT22;8594;52.052;8.354;2023-04-01T04:10:51;10.40;99.90
16955;DHT22;8594;52.052;8.354;2023-04-01T04:13:21;10.40;99.90
16955;DHT22;8594;52.052;8.354;2023-04-01T04:15:48;10.30;99.90
16955;DHT22;8594;52.052;8.354;2023-04-01T04:18:14;10.20;99.90
16955;DHT22;8594;52.052;8.354;2023-04-01T04:20:45;10.50;99.90
16955;DHT22;8594;52.052;8.354;2023-04-01T04:23:13;10.50;99.90
16955;DHT22;8594;52.052;8.354;2023-04-01T04:25:40;10.40;99.90
16955;DHT22;8594;52.052;8.354;2023-04-01T04:28:07;10.40;99.90
16955;DHT22;8594;52.052;8.354;2023-04-01T04:30:34;10.20;99.90
16955;DHT22;8594;52.052;8.354;2023-04-01T04:33:01;10.20;99.90
16955;DHT22;8594;52.052;8.354;2023-04-01T04:35:28;10.10;99.90
16955;DHT22;8594;52.052;8.354;2023-04-01T04:37:56;10.20;99.90
16955;DHT22;8594;52.052;8.354;2023-04-01T04:40:23;10.20;99.90
16955;DHT22;8594;52.052;8.354;2023-04-01T04:42:50;10.10;99.90
16955;DHT22;8594;52.052;8.354;2023-04-01T04:45:16;10.20;99.90
16955;DHT22;8594;52.052;8.354;2023-04-01T04:47:43;10.10;99.90
16955;DHT22;8594;52.052;8.354;2023-04-01T04:50:10;10.10;99.90
16955;DHT22;8594;52.052;8.354;2023-04-01T04:52:38;10.10;99.90
16955;DHT22;8594;52.052;8.354;2023-04-01T04:55:07;10.20;99.90
16955;DHT22;8594;52.052;8.354;2023-04-01T04:57:34;10.10;99.90
16955;DHT22;8594;52.052;8.354;2023-04-01T05:00:01;10.10;99.90
16955;DHT22;8594;52.052;8.354;2023-04-01T05:02:28;10.20;99.90
16955;DHT22;8594;52.052;8.354;2023-04-01T05:04:56;10.20;99.90
16955;DHT22;8594;52.052;8.354;2023-04-01T05:07:22;10.30;99.90
16955;DHT22;8594;52.052;8.354;2023-04-01T05:09:49;10.30;99.90
16955;DHT22;8594;52.052;8.354;2023-04-01T05:12:17;10.30;99.90
16955;DHT22;8594;52.052;8.354;2023-04-01T05:14:44;10.30;99.90
16955;DHT22;8594;52.052;8.354;2023-04-01T05:17:12;10.20;99.90
16955;DHT22;8594;52.052;8.354;2023-04-01T05:19:40;10.20;99.90
16955;DHT22;8594;52.052;8.354;2023-04-01T05:22:07;10.20;99.90
16955;DHT22;8594;52.052;8.354;2023-04-01T05:24:34;10.20;99.90
16955;DHT22;8594;52.052;8.354;2023-04-01T05:27:00;10.30;99.90
16955;DHT22;8594;52.052;8.354;2023-04-01T05:29:29;10.30;99.90
16955;DHT22;8594;52.052;8.354;2023-04-01T05:31:55;10.50;99.90
16955;DHT22;8594;52.052;8.354;2023-04-01T05:34:22;10.60;99.90
16955;DHT22;8594;52.052;8.354;2023-04-01T05:36:49;10.50;99.90
16955;DHT22;8594;52.052;8.354;2023-04-01T05:39:16;10.30;99.90
16955;DHT22;8594;52.052;8.354;2023-04-01T05:41:42;10.30;99.90
16955;DHT22;8594;52.052;8.354;2023-04-01T05:44:11;10.30;99.90
16955;DHT22;8594;52.052;8.354;2023-04-01T05:46:40;10.20;99.90
16955;DHT22;8594;52.052;8.354;2023-04-01T05:49:06;10.40;99.90
16955;DHT22;8594;52.052;8.354;2023-04-01T05:51:34;10.40;99.90
16955;DHT22;8594;52.052;8.354;2023-04-01T05:54:01;10.40;99.90
16955;DHT22;8594;52.052;8.354;2023-04-01T05:56:28;10.40;99.90
16955;DHT22;8594;52.052;8.354;2023-04-01T05:58:55;10.50;99.90
16955;DHT22;8594;52.052;8.354;2023-04-01T06:01:21;10.60;99.90
16955;DHT22;8594;52.052;8.354;2023-04-01T06:03:50;10.60;99.90
16955;DHT22;8594;52.052;8.354;2023-04-01T06:06:22;10.50;99.90
16955;DHT22;8594;52.052;8.354;2023-04-01T06:08:51;10.60;99.90
16955;DHT22;8594;52.052;8.354;2023-04-01T06:11:32;10.60;99.90
16955;DHT22;8594;52.052;8.354;2023-04-01T06:14:11;10.60;99.90
16955;DHT22;8594;52.052;8.354;2023-04-01T06:16:59;10.80;99.90
16955;DHT22;8594;52.052;8.354;2023-04-01T06:19:46;10.80;99.90
16955;DHT22;8594;52.052;8.354;2023-04-01T06:22:33;10.60;99.90
16955;DHT22;8594;52.052;8.354;2023-04-01T06:25:28;10.70;99.90
16955;DHT22;8594;52.052;8.354;2023-04-01T06:28:29;10.70;99.90
16955;DHT22;8594;52.052;8.354;2023-04-01T06:31:13;10.70;99.90
16955;DHT22;8594;52.052;8.354;2023-04-01T06:34:12;10.80;99.90
16955;DHT22;8594;52.052;8.354;2023-04-01T06:37:01;10.70;99.90
16955;DHT22;8594;52.052;8.354;2023-04-01T06:40:03;10.70;99.90
16955;DHT22;8594;52.052;8.354;2023-04-01T06:42:46;10.60;99.90
16955;DHT22;8594;52.052;8.354;2023-04-01T06:45:33;10.60;99.90
16955;DHT22;8594;52.052;8.354;2023-04-01T06:48:18;10.70;99.90
16955;DHT22;8594;52.052;8.354;2023-04-01T06:51:08;10.70;99.90
16955;DHT22;8594;52.052;8.354;2023-04-01T06:53:50;10.60;99.90
16955;DHT22;8594;52.052;8.354;2023-04-01T06:56:22;10.80;99.90
16955;DHT22;8594;52.052;8.354;2023-04-01T06:58:55;10.80;99.90
16955;DHT22;8594;52.052;8.354;2023-04-01T07:01:30;10.60;99.90
16955;DHT22;8594;52.052;8.354;2023-04-01T07:04:05;10.70;99.90
16955;DHT22;8594;52.052;8.354;2023-04-01T07:06:39;10.60;99.90
16955;DHT22;8594;52.052;8.354;2023-04-01T07:09:16;10.70;99.90
16955;DHT22;8594;52.052;8.354;2023-04-01T07:11:46;10.80;99.90
16955;DHT22;8594;52.052;8.354;2023-04-01T07:14:19;10.80;99.90
16955;DHT22;8594;52.052;8.354;2023-04-01T07:16:53;10.70;99.90
16955;DHT22;8594;52.052;8.354;2023-04-01T07:19:29;10.60;99.90
16955;DHT22;8594;52.052;8.354;2023-04-01T07:22:03;10.70;99.90
16955;DHT22;8594;52.052;8.354;2023-04-01T07:24:35;10.90;99.90
16955;DHT22;8594;52.052;8.354;2023-04-01T07:27:08;10.80;99.90
16955;DHT22;8594;52.052;8.354;2023-04-01T07:29:36;10.70;99.90
16955;DHT22;8594;52.052;8.354;2023-04-01T07:32:35;10.70;99.90
16955;DHT22;8594;52.052;8.354;2023-04-01T07:35:17;10.70;99.90
16955;DHT22;8594;52.052;8.354;2023-04-01T07:38:02;10.80;99.90
16955;DHT22;8594;52.052;8.354;2023-04-01T07:40:45;10.80;99.90
16955;DHT22;8594;52.052;8.354;2023-04-01T07:43:26;10.60;99.90
16955;DHT22;8594;52.052;8.354;2023-04-01T07:46:11;10.70;99.90
16955;DHT22;8594;52.052;8.354;2023-04-01T07:48:53;10.60;99.90
16955;DHT22;8594;52.052;8.354;2023-04-01T07:51:29;10.60;99.90
16955;DHT22;8594;52.052;8.354;2023-04-01T07:54:06;10.60;99.90
16955;DHT22;8594;52.052;8.354;2023-04-01T07:56:44;10.60;99.90
16955;DHT22;8594;52.052;8.354;2023-04-01T07:59:24;10.80;99.90
16955;DHT22;8594;52.052;8.354;2023-04-01T08:02:02;10.80;99.90
16955;DHT22;8594;52.052;8.354;2023-04-01T08:04:45;11.00;99.90
16955;DHT22;8594;52.052;8.354;2023-04-01T08:07:25;11.00;99.90
16955;DHT22;8594;52.052;8.354;2023-04-01T08:09:59;11.10;99.90
16955;DHT22;8594;52.052;8.354;2023-04-01T08:12:40;11.20;99.90
16955;DHT22;8594;52.052;8.354;2023-04-01T08:15:21;11.20;99.90
16955;DHT22;8594;52.052;8.354;2023-04-01T08:18:05;11.10;99.90
16955;DHT22;8594;52.052;8.354;2023-04-01T08:20:44;11.10;99.90
16955;DHT22;8594;52.052;8.354;2023-04-01T08:23:16;11.20;99.90
16955;DHT22;8594;52.052;8.354;2023-04-01T08:25:49;11.20;99.90
16955;DHT22;8594;52.052;8.354;2023-04-01T08:28:24;11.20;99.90
16955;DHT22;8594;52.052;8.354;2023-04-01T08:31:00;11.10;99.90
16955;DHT22;8594;52.052;8.354;2023-04-01T08:33:31;11.00;99.90
16955;DHT22;8594;52.052;8.354;2023-04-01T08:36:03;11.20;99.90
16955;DHT22;8594;52.052;8.354;2023-04-01T08:38:39;11.20;99.90
16955;DHT22;8594;52.052;8.354;2023-04-01T08:41:31;11.20;99.90
16955;DHT22;8594;52.052;8.354;2023-04-01T08:44:36;11.30;99.90
16955;DHT22;8594;52.052;8.354;2023-04-01T08:47:40;11.30;99.90
16955;DHT22;8594;52.052;8.354;2023-04-01T08:50:36;11.50;99.90
16955;DHT22;8594;52.052;8.354;2023-04-01T08:53:21;11.70;99.90
16955;DHT22;8594;52.052;8.354;2023-04-01T08:56:06;11.60;99.90
16955;DHT22;8594;52.052;8.354;2023-04-01T08:59:01;11.60;99.90
16955;DHT22;8594;52.052;8.354;2023-04-01T09:02:04;11.80;99.90
16955;DHT22;8594;52.052;8.354;2023-04-01T09:05:07;11.80;99.90
16955;DHT22;8594;52.052;8.354;2023-04-01T09:07:58;11.80;99.90
16955;DHT22;8594;52.052;8.354;2023-04-01T09:10:56;12.00;99.90
16955;DHT22;8594;52.052;8.354;2023-04-01T09:13:51;12.10;99.90
16955;DHT22;8594;52.052;8.354;2023-04-01T09:20:04;12.40;99.90
16955;DHT22;8594;52.052;8.354;2023-04-01T09:23:02;12.40;99.90
16955;DHT22;8594;52.052;8.354;2023-04-01T09:25:59;12.40;99.90
16955;DHT22;8594;52.052;8.354;2023-04-01T09:28:42;12.30;99.90
16955;DHT22;8594;52.052;8.354;2023-04-01T09:31:32;12.40;99.90
16955;DHT22;8594;52.052;8.354;2023-04-01T09:34:31;12.30;99.90
16955;DHT22;8594;52.052;8.354;2023-04-01T09:37:19;12.30;99.90
16955;DHT22;8594;52.052;8.354;2023-04-01T09:40:13;12.30;99.90
16955;DHT22;8594;52.052;8.354;2023-04-01T09:42:45;12.30;99.90
16955;DHT22;8594;52.052;8.354;2023-04-01T09:45:44;12.40;99.90
16955;DHT22;8594;52.052;8.354;2023-04-01T09:48:32;12.50;99.90
16955;DHT22;8594;52.052;8.354;2023-04-01T09:51:25;12.50;99.90
16955;DHT22;8594;52.052;8.354;2023-04-01T09:54:07;12.60;99.90
16955;DHT22;8594;52.052;8.354;2023-04-01T09:57:22;12.50;99.90
16955;DHT22;8594;52.052;8.354;2023-04-01T10:00:20;12.40;99.90
16955;DHT22;8594;52.052;8.354;2023-04-01T10:03:27;12.60;99.90
16955;DHT22;8594;52.052;8.354;2023-04-01T10:06:57;12.70;99.90
16955;DHT22;8594;52.052;8.354;2023-04-01T10:10:15;12.80;99.90
16955;DHT22;8594;52.052;8.354;2023-04-01T10:13:42;13.10;99.90
16955;DHT22;8594;52.052;8.354;2023-04-01T10:20:04;13.50;99.90
16955;DHT22;8594;52.052;8.354;2023-04-01T10:22:59;13.40;99.90
16955;DHT22;8594;52.052;8.354;2023-04-01T10:26:20;13.60;99.90
16955;DHT22;8594;52.052;8.354;2023-04-01T10:39:49;12.90;99.90
16955;DHT22;8594;52.052;8.354;2023-04-01T10:43:11;12.90;99.90
16955;DHT22;8594;52.052;8.354;2023-04-01T10:49:43;12.80;99.90
16955;DHT22;8594;52.052;8.354;2023-04-01T10:52:51;12.90;99.90
16955;DHT22;8594;52.052;8.354;2023-04-01T10:55:53;12.80;99.90
16955;DHT22;8594;52.052;8.354;2023-04-01T10:59:15;12.60;99.90
16955;DHT22;8594;52.052;8.354;2023-04-01T11:05:57;13.10;99.90
16955;DHT22;8594;52.052;8.354;2023-04-01T11:12:33;13.20;99.90
16955;DHT22;8594;52.052;8.354;2023-04-01T11:15:44;13.10;99.90
16955;DHT22;8594;52.052;8.354;2023-04-01T11:19:00;13.00;99.90
16955;DHT22;8594;52.052;8.354;2023-04-01T11:22:17;13.10;99.90
16955;DHT22;8594;52.052;8.354;2023-04-01T11:25:13;13.30;99.90
16955;DHT22;8594;52.052;8.354;2023-04-01T11:28:27;13.50;99.90
16955;DHT22;8594;52.052;8.354;2023-04-01T11:31:25;13.50;99.90
16955;DHT22;8594;52.052;8.354;2023-04-01T11:34:11;13.50;99.90
16955;DHT22;8594;52.052;8.354;2023-04-01T11:36:55;13.60;99.90
16955;DHT22;8594;52.052;8.354;2023-04-01T11:39:35;13.70;99.90
16955;DHT22;8594;52.052;8.354;2023-04-01T11:42:18;13.80;99.90
16955;DHT22;8594;52.052;8.354;2023-04-01T11:45:01;13.80;99.90
16955;DHT22;8594;52.052;8.354;2023-04-01T11:47:57;13.90;99.90
16955;DHT22;8594;52.052;8.354;2023-04-01T11:50:42;14.00;99.90
16955;DHT22;8594;52.052;8.354;2023-04-01T11:53:28;14.30;99.90
16955;DHT22;8594;52.052;8.354;2023-04-01T11:56:17;14.30;99.90
16955;DHT22;8594;52.052;8.354;2023-04-01T11:59:08;14.30;99.90
16955;DHT22;8594;52.052;8.354;2023-04-01T12:02:00;14.30;99.90
16955;DHT22;8594;52.052;8.354;2023-04-01T12:05:03;14.10;99.90
16955;DHT22;8594;52.052;8.354;2023-04-01T12:07:53;14.20;99.90
16955;DHT22;8594;52.052;8.354;2023-04-01T12:10:37;14.20;99.90
16955;DHT22;8594;52.052;8.354;2023-04-01T12:13:14;14.20;99.90
16955;DHT22;8594;52.052;8.354;2023-04-01T12:16:05;14.20;99.90
16955;DHT22;8594;52.052;8.354;2023-04-01T12:18:44;14.30;99.90
16955;DHT22;8594;52.052;8.354;2023-04-01T12:21:24;14.20;99.90
16955;DHT22;8594;52.052;8.354;2023-04-01T12:24:22;14.20;99.90
16955;DHT22;8594;52.052;8.354;2023-04-01T12:27:09;14.10;99.90
16955;DHT22;8594;52.052;8.354;2023-04-01T12:30:17;13.90;99.90
16955;DHT22;8594;52.052;8.354;2023-04-01T12:33:01;14.00;99.90
16955;DHT22;8594;52.052;8.354;2023-04-01T12:35:53;14.00;99.90
16955;DHT22;8594;52.052;8.354;2023-04-01T12:38:34;14.20;99.90
16955;DHT22;8594;52.052;8.354;2023-04-01T12:41:14;14.30;99.90
16955;DHT22;8594;52.052;8.354;2023-04-01T12:47:06;14.00;99.90
16955;DHT22;8594;52.052;8.354;2023-04-01T12:53:13;13.90;99.90
16955;DHT22;8594;52.052;8.354;2023-04-01T12:55:55;14.10;99.90
16955;DHT22;8594;52.052;8.354;2023-04-01T12:58:42;14.00;99.90
16955;DHT22;8594;52.052;8.354;2023-04-01T13:07:58;14.20;99.90
16955;DHT22;8594;52.052;8.354;2023-04-01T13:10:38;14.20;99.90
16955;DHT22;8594;52.052;8.354;2023-04-01T13:13:39;14.00;99.90
16955;DHT22;8594;52.052;8.354;2023-04-01T13:16:17;14.00;99.90
16955;DHT22;8594;52.052;8.354;2023-04-01T13:18:56;13.90;99.90
16955;DHT22;8594;52.052;8.354;2023-04-01T13:21:34;13.70;99.90
16955;DHT22;8594;52.052;8.354;2023-04-01T13:24:16;13.80;99.90
16955;DHT22;8594;52.052;8.354;2023-04-01T13:26:59;13.80;99.90
16955;DHT22;8594;52.052;8.354;2023-04-01T13:29:36;13.70;99.90
16955;DHT22;8594;52.052;8.354;2023-04-01T13:32:15;13.40;99.90
16955;DHT22;8594;52.052;8.354;2023-04-01T13:35:01;13.30;99.90
16955;DHT22;8594;52.052;8.354;2023-04-01T13:37:48;13.10;99.90
16955;DHT22;8594;52.052;8.354;2023-04-01T13:40:49;12.90;99.90
16955;DHT22;8594;52.052;8.354;2023-04-01T13:43:29;13.00;99.90
16955;DHT22;8594;52.052;8.354;2023-04-01T13:46:18;13.10;99.90
16955;DHT22;8594;52.052;8.354;2023-04-01T13:49:07;13.20;99.90
16955;DHT22;8594;52.052;8.354;2023-04-01T13:55:39;13.30;99.90
16955;DHT22;8594;52.052;8.354;2023-04-01T14:01:35;13.40;99.90
16955;DHT22;8594;52.052;8.354;2023-04-01T14:04:34;13.40;99.90
16955;DHT22;8594;52.052;8.354;2023-04-01T14:07:22;13.40;99.90
16955;DHT22;8594;52.052;8.354;2023-04-01T14:10:17;13.60;99.90
16955;DHT22;8594;52.052;8.354;2023-04-01T14:12:55;13.60;99.90
16955;DHT22;8594;52.052;8.354;2023-04-01T14:15:39;13.50;99.90
16955;DHT22;8594;52.052;8.354;2023-04-01T14:18:24;13.50;99.90
16955;DHT22;8594;52.052;8.354;2023-04-01T14:24:32;13.40;99.90
16955;DHT22;8594;52.052;8.354;2023-04-01T14:27:37;13.60;99.90
16955;DHT22;8594;52.052;8.354;2023-04-01T14:33:23;13.70;99.90
16955;DHT22;8594;52.052;8.354;2023-04-01T14:36:18;13.70;99.90
16955;DHT22;8594;52.052;8.354;2023-04-01T14:39:15;13.70;99.90
16955;DHT22;8594;52.052;8.354;2023-04-01T14:42:03;13.70;99.90
16955;DHT22;8594;52.052;8.354;2023-04-01T14:45:06;13.60;99.90
16955;DHT22;8594;52.052;8.354;2023-04-01T14:47:50;13.70;99.90
16955;DHT22;8594;52.052;8.354;2023-04-01T14:50:25;13.50;99.90
16955;DHT22;8594;52.052;8.354;2023-04-01T14:52:59;13.40;99.90
16955;DHT22;8594;52.052;8.354;2023-04-01T14:55:48;13.20;99.90
16955;DHT22;8594;52.052;8.354;2023-04-01T14:58:18;13.30;99.90
16955;DHT22;8594;52.052;8.354;2023-04-01T15:01:06;13.20;99.90
16955;DHT22;8594;52.052;8.354;2023-04-01T15:03:53;13.40;99.90
16955;DHT22;8594;52.052;8.354;2023-04-01T15:06:49;13.30;99.90
16955;DHT22;8594;52.052;8.354;2023-04-01T15:09:35;13.40;99.90
16955;DHT22;8594;52.052;8.354;2023-04-01T15:12:19;13.30;99.90
16955;DHT22;8594;52.052;8.354;2023-04-01T15:15:01;13.20;99.90
16955;DHT22;8594;52.052;8.354;2023-04-01T15:17:46;13.30;99.90
16955;DHT22;8594;52.052;8.354;2023-04-01T15:20:38;13.30;99.90
16955;DHT22;8594;52.052;8.354;2023-04-01T15:26:28;13.10;99.90
16955;DHT22;8594;52.052;8.354;2023-04-01T15:29:23;12.80;99.90
16955;DHT22;8594;52.052;8.354;2023-04-01T15:32:15;12.80;99.90
16955;DHT22;8594;52.052;8.354;2023-04-01T15:34:50;12.80;99.90
16955;DHT22;8594;52.052;8.354;2023-04-01T15:37:33;12.70;99.90
16955;DHT22;8594;52.052;8.354;2023-04-01T15:40:17;12.60;99.90
16955;DHT22;8594;52.052;8.354;2023-04-01T15:42:59;12.70;99.90
16955;DHT22;8594;52.052;8.354;2023-04-01T15:45:45;12.60;99.90
16955;DHT22;8594;52.052;8.354;2023-04-01T15:48:33;12.60;99.90
16955;DHT22;8594;52.052;8.354;2023-04-01T15:51:28;12.60;99.90
16955;DHT22;8594;52.052;8.354;2023-04-01T15:54:27;12.70;99.90
16955;DHT22;8594;52.052;8.354;2023-04-01T15:57:12;12.50;99.90
16955;DHT22;8594;52.052;8.354;2023-04-01T16:00:02;12.70;99.90
16955;DHT22;8594;52.052;8.354;2023-04-01T16:02:43;13.00;99.90
16955;DHT22;8594;52.052;8.354;2023-04-01T16:05:27;13.00;99.90
16955;DHT22;8594;52.052;8.354;2023-04-01T16:08:18;13.00;99.90
16955;DHT22;8594;52.052;8.354;2023-04-01T16:11:12;12.90;99.90
16955;DHT22;8594;52.052;8.354;2023-04-01T16:13:58;12.90;99.90
16955;DHT22;8594;52.052;8.354;2023-04-01T16:16:41;12.70;99.90
16955;DHT22;8594;52.052;8.354;2023-04-01T16:19:37;12.60;99.90
16955;DHT22;8594;52.052;8.354;2023-04-01T16:22:18;12.70;99.90
16955;DHT22;8594;52.052;8.354;2023-04-01T16:24:54;12.60;99.90
16955;DHT22;8594;52.052;8.354;2023-04-01T16:27:30;12.50;99.90
16955;DHT22;8594;52.052;8.354;2023-04-01T16:30:25;12.40;99.90
16955;DHT22;8594;52.052;8.354;2023-04-01T16:33:03;12.40;99.90
16955;DHT22;8594;52.052;8.354;2023-04-01T16:35:41;12.50;99.90
16955;DHT22;8594;52.052;8.354;2023-04-01T16:38:20;12.50;99.90
16955;DHT22;8594;52.052;8.354;2023-04-01T16:41:00;12.20;99.90
16955;DHT22;8594;52.052;8.354;2023-04-01T16:43:42;12.00;99.90
16955;DHT22;8594;52.052;8.354;2023-04-01T16:46:33;12.00;99.90
16955;DHT22;8594;52.052;8.354;2023-04-01T16:49:23;11.90;99.90
16955;DHT22;8594;52.052;8.354;2023-04-01T16:51:55;11.80;99.90
16955;DHT22;8594;52.052;8.354;2023-04-01T16:54:36;11.80;99.90
16955;DHT22;8594;52.052;8.354;2023-04-01T16:57:20;11.80;99.90
16955;DHT22;8594;52.052;8.354;2023-04-01T16:59:59;11.70;99.90
16955;DHT22;8594;52.052;8.354;2023-04-01T17:02:33;11.40;99.90
16955;DHT22;8594;52.052;8.354;2023-04-01T17:05:06;11.30;99.90
16955;DHT22;8594;52.052;8.354;2023-04-01T17:07:49;11.20;99.90
16955;DHT22;8594;52.052;8.354;2023-04-01T17:10:35;11.10;99.90
16955;DHT22;8594;52.052;8.354;2023-04-01T17:13:29;11.00;99.90
16955;DHT22;8594;52.052;8.354;2023-04-01T17:16:17;11.00;99.90
16955;DHT22;8594;52.052;8.354;2023-04-01T17:18:59;10.80;99.90
16955;DHT22;8594;52.052;8.354;2023-04-01T17:21:48;10.70;99.90
16955;DHT22;8594;52.052;8.354;2023-04-01T17:24:36;10.60;99.90
16955;DHT22;8594;52.052;8.354;2023-04-01T17:27:27;10.60;99.90
16955;DHT22;8594;52.052;8.354;2023-04-01T17:33:10;10.30;99.90
16955;DHT22;8594;52.052;8.354;2023-04-01T17:35:57;10.30;99.90
16955;DHT22;8594;52.052;8.354;2023-04-01T17:38:40;10.10;99.90
16955;DHT22;8594;52.052;8.354;2023-04-01T17:41:27;10.20;99.90
16955;DHT22;8594;52.052;8.354;2023-04-01T17:44:08;10.10;99.90
16955;DHT22;8594;52.052;8.354;2023-04-01T17:46:58;10.00;99.90
16955;DHT22;8594;52.052;8.354;2023-04-01T17:49:38;10.00;99.90
16955;DHT22;8594;52.052;8.354;2023-04-01T17:52:16;10.00;99.90
16955;DHT22;8594;52.052;8.354;2023-04-01T17:54:54;9.90;99.90
16955;DHT22;8594;52.052;8.354;2023-04-01T17:57:34;9.90;99.90
16955;DHT22;8594;52.052;8.354;2023-04-01T18:00:20;9.80;99.90
16955;DHT22;8594;52.052;8.354;2023-04-01T18:03:00;9.80;99.90
16955;DHT22;8594;52.052;8.354;2023-04-01T18:05:47;9.80;99.90
16955;DHT22;8594;52.052;8.354;2023-04-01T18:08:40;9.70;99.90
16955;DHT22;8594;52.052;8.354;2023-04-01T18:11:25;9.60;99.90
16955;DHT22;8594;52.052;8.354;2023-04-01T18:14:20;9.60;99.90